Arrington Corner, Kentucky
Current Conditions -  °F | °C
As of 6:56 PM on Friday 31 Oct 2014 (Local Time) from KOWB Reporting Station
Overcast Overcast  
Wind Chill: 31°   Ceiling: 5000
Heat Index: 40°   Visibility: 10mi
Dew Point: 31°   Wind: 16mph
Humidity: 71%   Direction: 320°NW
Pressure: 30.16"   Gusts: NA
Location:  37.8331°N, 86.7635°W
Report Text: KOWB 312356Z 32014KT 10SM BKN050 OVC100 04/M01 A3016 RMK AO2 51017 60000 T00441005 10083 20038 RAE13 P0000 PK WND 33026/2306 SLP216
Loading
Personal Weather Stations






























Interactive Weather Map
Tropical Storm Tracking
New forecast layout! Learn more

10-Day Weather Forecast

Advertisements
Track Severe Weather on mobile